sensor_id;sensor_type;location;lat;lon;timestamp;P1;durP1;ratioP1;P2;durP2;ratioP2
60582;SDS011;46415;47.536;19.066;2022-08-19T00:00:21;10.70;;;7.40;;
60582;SDS011;46415;47.536;19.066;2022-08-19T00:03:24;8.80;;;7.90;;
60582;SDS011;46415;47.536;19.066;2022-08-19T00:06:28;9.70;;;7.80;;
60582;SDS011;46415;47.536;19.066;2022-08-19T00:09:32;10.48;;;8.50;;
60582;SDS011;46415;47.536;19.066;2022-08-19T00:12:34;8.80;;;7.90;;
60582;SDS011;46415;47.536;19.066;2022-08-19T00:15:48;8.85;;;7.80;;
60582;SDS011;46415;47.536;19.066;2022-08-19T00:18:50;8.60;;;7.80;;
60582;SDS011;46415;47.536;19.066;2022-08-19T00:21:53;9.18;;;8.18;;
60582;SDS011;46415;47.536;19.066;2022-08-19T00:24:56;10.18;;;8.60;;
60582;SDS011;46415;47.536;19.066;2022-08-19T00:28:04;9.05;;;8.20;;
60582;SDS011;46415;47.536;19.066;2022-08-19T00:31:07;9.82;;;8.32;;
60582;SDS011;46415;47.536;19.066;2022-08-19T00:34:11;8.80;;;8.00;;
60582;SDS011;46415;47.536;19.066;2022-08-19T00:37:15;9.95;;;7.95;;
60582;SDS011;46415;47.536;19.066;2022-08-19T00:40:18;9.65;;;8.70;;
60582;SDS011;46415;47.536;19.066;2022-08-19T00:43:23;10.32;;;8.80;;
60582;SDS011;46415;47.536;19.066;2022-08-19T00:46:27;8.55;;;7.75;;
60582;SDS011;46415;47.536;19.066;2022-08-19T00:49:31;8.98;;;8.18;;
60582;SDS011;46415;47.536;19.066;2022-08-19T00:52:41;9.73;;;8.18;;
60582;SDS011;46415;47.536;19.066;2022-08-19T00:55:48;10.07;;;8.35;;
60582;SDS011;46415;47.536;19.066;2022-08-19T00:58:55;8.35;;;7.43;;
60582;SDS011;46415;47.536;19.066;2022-08-19T01:02:00;10.55;;;8.30;;
60582;SDS011;46415;47.536;19.066;2022-08-19T01:05:05;9.30;;;8.27;;
60582;SDS011;46415;47.536;19.066;2022-08-19T01:08:11;8.82;;;7.93;;
60582;SDS011;46415;47.536;19.066;2022-08-19T01:11:16;10.23;;;8.48;;
60582;SDS011;46415;47.536;19.066;2022-08-19T01:14:18;9.02;;;8.23;;
60582;SDS011;46415;47.536;19.066;2022-08-19T01:17:22;9.55;;;8.35;;
60582;SDS011;46415;47.536;19.066;2022-08-19T01:20:24;11.73;;;7.93;;
60582;SDS011;46415;47.536;19.066;2022-08-19T01:23:27;9.48;;;8.32;;
60582;SDS011;46415;47.536;19.066;2022-08-19T01:27:19;9.75;;;8.70;;
60582;SDS011;46415;47.536;19.066;2022-08-19T01:30:28;8.18;;;7.37;;
60582;SDS011;46415;47.536;19.066;2022-08-19T01:33:33;10.10;;;8.15;;
60582;SDS011;46415;47.536;19.066;2022-08-19T01:36:38;9.90;;;8.20;;
60582;SDS011;46415;47.536;19.066;2022-08-19T01:39:44;8.60;;;7.80;;
60582;SDS011;46415;47.536;19.066;2022-08-19T01:42:47;9.38;;;8.38;;
60582;SDS011;46415;47.536;19.066;2022-08-19T01:45:51;9.10;;;8.30;;
60582;SDS011;46415;47.536;19.066;2022-08-19T01:48:55;9.35;;;8.23;;
60582;SDS011;46415;47.536;19.066;2022-08-19T01:51:59;9.57;;;8.68;;
60582;SDS011;46415;47.536;19.066;2022-08-19T01:55:03;9.93;;;8.93;;
60582;SDS011;46415;47.536;19.066;2022-08-19T01:58:09;10.15;;;8.30;;
60582;SDS011;46415;47.536;19.066;2022-08-19T02:01:16;10.45;;;8.52;;
60582;SDS011;46415;47.536;19.066;2022-08-19T02:04:19;9.48;;;8.48;;
60582;SDS011;46415;47.536;19.066;2022-08-19T02:07:23;11.48;;;8.93;;
60582;SDS011;46415;47.536;19.066;2022-08-19T02:10:26;10.93;;;9.07;;
60582;SDS011;46415;47.536;19.066;2022-08-19T02:13:29;11.60;;;9.20;;
60582;SDS011;46415;47.536;19.066;2022-08-19T02:16:32;9.95;;;8.63;;
60582;SDS011;46415;47.536;19.066;2022-08-19T02:19:35;10.48;;;8.60;;
60582;SDS011;46415;47.536;19.066;2022-08-19T02:22:42;10.18;;;8.95;;
60582;SDS011;46415;47.536;19.066;2022-08-19T02:25:46;11.40;;;8.43;;
60582;SDS011;46415;47.536;19.066;2022-08-19T02:28:50;9.32;;;8.43;;
60582;SDS011;46415;47.536;19.066;2022-08-19T02:31:53;10.25;;;8.70;;
60582;SDS011;46415;47.536;19.066;2022-08-19T02:34:56;10.32;;;8.57;;
60582;SDS011;46415;47.536;19.066;2022-08-19T02:37:58;11.80;;;9.65;;
60582;SDS011;46415;47.536;19.066;2022-08-19T02:41:21;10.20;;;9.20;;
60582;SDS011;46415;47.536;19.066;2022-08-19T02:44:28;10.40;;;9.38;;
60582;SDS011;46415;47.536;19.066;2022-08-19T02:47:33;10.43;;;9.18;;
60582;SDS011;46415;47.536;19.066;2022-08-19T02:50:39;11.35;;;9.48;;
60582;SDS011;46415;47.536;19.066;2022-08-19T02:53:54;9.75;;;8.82;;
60582;SDS011;46415;47.536;19.066;2022-08-19T02:56:58;10.10;;;9.00;;
60582;SDS011;46415;47.536;19.066;2022-08-19T03:00:03;9.70;;;8.77;;
60582;SDS011;46415;47.536;19.066;2022-08-19T03:03:07;10.30;;;8.88;;
60582;SDS011;46415;47.536;19.066;2022-08-19T03:06:12;10.60;;;9.60;;
60582;SDS011;46415;47.536;19.066;2022-08-19T03:09:17;10.68;;;9.68;;
60582;SDS011;46415;47.536;19.066;2022-08-19T03:12:21;10.90;;;8.70;;
60582;SDS011;46415;47.536;19.066;2022-08-19T03:15:23;10.18;;;9.13;;
60582;SDS011;46415;47.536;19.066;2022-08-19T03:18:26;11.15;;;9.38;;
60582;SDS011;46415;47.536;19.066;2022-08-19T03:21:31;12.65;;;9.32;;
60582;SDS011;46415;47.536;19.066;2022-08-19T03:24:35;13.48;;;9.55;;
60582;SDS011;46415;47.536;19.066;2022-08-19T03:27:40;11.98;;;9.25;;
60582;SDS011;46415;47.536;19.066;2022-08-19T03:30:53;12.77;;;10.02;;
60582;SDS011;46415;47.536;19.066;2022-08-19T03:34:29;10.93;;;9.65;;
60582;SDS011;46415;47.536;19.066;2022-08-19T03:37:33;13.30;;;9.25;;
60582;SDS011;46415;47.536;19.066;2022-08-19T03:40:38;9.98;;;8.95;;
60582;SDS011;46415;47.536;19.066;2022-08-19T03:43:42;10.10;;;8.68;;
60582;SDS011;46415;47.536;19.066;2022-08-19T03:46:46;10.32;;;9.27;;
60582;SDS011;46415;47.536;19.066;2022-08-19T03:49:57;10.85;;;8.95;;
60582;SDS011;46415;47.536;19.066;2022-08-19T03:53:00;11.75;;;9.25;;
60582;SDS011;46415;47.536;19.066;2022-08-19T03:56:03;9.68;;;8.60;;
60582;SDS011;46415;47.536;19.066;2022-08-19T03:59:07;10.82;;;9.48;;
60582;SDS011;46415;47.536;19.066;2022-08-19T04:02:12;11.70;;;8.82;;
60582;SDS011;46415;47.536;19.066;2022-08-19T04:05:15;10.50;;;9.38;;
60582;SDS011;46415;47.536;19.066;2022-08-19T04:08:18;10.70;;;9.32;;
60582;SDS011;46415;47.536;19.066;2022-08-19T04:11:24;9.98;;;9.07;;
60582;SDS011;46415;47.536;19.066;2022-08-19T04:14:45;10.30;;;9.10;;
60582;SDS011;46415;47.536;19.066;2022-08-19T04:17:49;13.05;;;9.23;;
60582;SDS011;46415;47.536;19.066;2022-08-19T04:20:51;11.52;;;9.77;;
60582;SDS011;46415;47.536;19.066;2022-08-19T04:23:55;12.50;;;9.25;;
60582;SDS011;46415;47.536;19.066;2022-08-19T04:26:59;13.65;;;9.32;;
60582;SDS011;46415;47.536;19.066;2022-08-19T04:30:04;10.18;;;9.20;;
60582;SDS011;46415;47.536;19.066;2022-08-19T04:33:07;9.85;;;8.45;;
60582;SDS011;46415;47.536;19.066;2022-08-19T04:36:17;11.93;;;8.90;;
60582;SDS011;46415;47.536;19.066;2022-08-19T04:39:23;11.15;;;9.00;;
60582;SDS011;46415;47.536;19.066;2022-08-19T04:42:49;8.82;;;7.93;;
60582;SDS011;46415;47.536;19.066;2022-08-19T04:45:52;12.95;;;9.43;;
60582;SDS011;46415;47.536;19.066;2022-08-19T04:49:03;11.20;;;8.48;;
60582;SDS011;46415;47.536;19.066;2022-08-19T04:52:14;15.05;;;8.82;;
60582;SDS011;46415;47.536;19.066;2022-08-19T04:55:17;11.30;;;8.82;;
60582;SDS011;46415;47.536;19.066;2022-08-19T04:58:20;10.82;;;8.50;;
60582;SDS011;46415;47.536;19.066;2022-08-19T05:01:24;11.07;;;8.82;;
60582;SDS011;46415;47.536;19.066;2022-08-19T05:04:31;10.75;;;8.68;;
60582;SDS011;46415;47.536;19.066;2022-08-19T05:07:35;13.80;;;9.02;;
60582;SDS011;46415;47.536;19.066;2022-08-19T05:10:38;10.80;;;8.90;;
60582;SDS011;46415;47.536;19.066;2022-08-19T05:13:42;12.55;;;9.07;;
60582;SDS011;46415;47.536;19.066;2022-08-19T05:16:46;26.45;;;9.32;;
60582;SDS011;46415;47.536;19.066;2022-08-19T05:19:49;10.50;;;8.25;;
60582;SDS011;46415;47.536;19.066;2022-08-19T05:23:11;18.37;;;9.18;;
60582;SDS011;46415;47.536;19.066;2022-08-19T05:26:24;15.60;;;9.20;;
60582;SDS011;46415;47.536;19.066;2022-08-19T05:29:31;9.73;;;8.25;;
60582;SDS011;46415;47.536;19.066;2022-08-19T05:32:38;11.15;;;8.55;;
60582;SDS011;46415;47.536;19.066;2022-08-19T05:35:41;10.80;;;8.27;;
60582;SDS011;46415;47.536;19.066;2022-08-19T05:38:47;9.85;;;8.82;;
60582;SDS011;46415;47.536;19.066;2022-08-19T05:41:50;10.32;;;8.63;;
60582;SDS011;46415;47.536;19.066;2022-08-19T05:44:55;13.30;;;8.30;;
60582;SDS011;46415;47.536;19.066;2022-08-19T05:47:58;9.52;;;8.30;;
60582;SDS011;46415;47.536;19.066;2022-08-19T05:51:05;11.80;;;8.05;;
60582;SDS011;46415;47.536;19.066;2022-08-19T05:54:10;11.65;;;8.32;;
60582;SDS011;46415;47.536;19.066;2022-08-19T05:57:15;9.05;;;7.82;;
60582;SDS011;46415;47.536;19.066;2022-08-19T06:00:18;11.60;;;7.75;;
60582;SDS011;46415;47.536;19.066;2022-08-19T06:03:26;10.52;;;8.32;;
60582;SDS011;46415;47.536;19.066;2022-08-19T06:06:29;10.13;;;8.35;;
60582;SDS011;46415;47.536;19.066;2022-08-19T06:09:32;9.02;;;8.07;;
60582;SDS011;46415;47.536;19.066;2022-08-19T06:12:35;8.13;;;7.35;;
60582;SDS011;46415;47.536;19.066;2022-08-19T06:15:38;8.70;;;7.45;;
60582;SDS011;46415;47.536;19.066;2022-08-19T06:18:41;11.15;;;8.32;;
60582;SDS011;46415;47.536;19.066;2022-08-19T06:21:47;11.68;;;7.55;;
60582;SDS011;46415;47.536;19.066;2022-08-19T06:24:50;11.45;;;7.90;;
60582;SDS011;46415;47.536;19.066;2022-08-19T06:27:56;9.90;;;7.60;;
60582;SDS011;46415;47.536;19.066;2022-08-19T06:31:17;9.75;;;7.70;;
60582;SDS011;46415;47.536;19.066;2022-08-19T06:34:31;8.45;;;7.65;;
60582;SDS011;46415;47.536;19.066;2022-08-19T06:37:36;10.93;;;7.82;;
60582;SDS011;46415;47.536;19.066;2022-08-19T06:40:45;15.73;;;7.55;;
60582;SDS011;46415;47.536;19.066;2022-08-19T06:43:47;9.18;;;7.22;;
60582;SDS011;46415;47.536;19.066;2022-08-19T06:46:55;15.52;;;7.57;;
60582;SDS011;46415;47.536;19.066;2022-08-19T06:49:58;12.48;;;7.75;;
60582;SDS011;46415;47.536;19.066;2022-08-19T06:53:11;11.73;;;7.65;;
60582;SDS011;46415;47.536;19.066;2022-08-19T06:56:14;14.15;;;7.37;;
60582;SDS011;46415;47.536;19.066;2022-08-19T06:59:20;7.43;;;6.60;;
60582;SDS011;46415;47.536;19.066;2022-08-19T07:02:26;63.42;;;11.20;;
60582;SDS011;46415;47.536;19.066;2022-08-19T07:05:29;12.63;;;7.18;;
60582;SDS011;46415;47.536;19.066;2022-08-19T07:08:34;9.88;;;7.40;;
60582;SDS011;46415;47.536;19.066;2022-08-19T07:11:48;8.80;;;7.45;;
60582;SDS011;46415;47.536;19.066;2022-08-19T07:14:52;27.33;;;8.13;;
60582;SDS011;46415;47.536;19.066;2022-08-19T07:17:56;19.17;;;7.95;;
60582;SDS011;46415;47.536;19.066;2022-08-19T07:21:02;10.45;;;7.40;;
60582;SDS011;46415;47.536;19.066;2022-08-19T07:24:11;9.60;;;6.85;;
60582;SDS011;46415;47.536;19.066;2022-08-19T07:27:14;10.57;;;7.60;;
60582;SDS011;46415;47.536;19.066;2022-08-19T07:30:17;10.73;;;7.10;;
60582;SDS011;46415;47.536;19.066;2022-08-19T07:33:20;8.82;;;7.55;;
60582;SDS011;46415;47.536;19.066;2022-08-19T07:36:24;12.35;;;7.85;;
60582;SDS011;46415;47.536;19.066;2022-08-19T07:39:35;11.82;;;7.10;;
60582;SDS011;46415;47.536;19.066;2022-08-19T07:42:39;14.68;;;7.10;;
60582;SDS011;46415;47.536;19.066;2022-08-19T07:45:42;11.25;;;6.90;;
60582;SDS011;46415;47.536;19.066;2022-08-19T07:48:44;9.20;;;7.00;;
60582;SDS011;46415;47.536;19.066;2022-08-19T07:51:50;8.93;;;6.53;;
60582;SDS011;46415;47.536;19.066;2022-08-19T07:54:58;8.30;;;6.70;;
60582;SDS011;46415;47.536;19.066;2022-08-19T07:58:02;15.98;;;7.40;;
60582;SDS011;46415;47.536;19.066;2022-08-19T08:01:07;7.28;;;6.53;;
60582;SDS011;46415;47.536;19.066;2022-08-19T08:04:13;7.37;;;6.55;;
60582;SDS011;46415;47.536;19.066;2022-08-19T08:07:35;6.97;;;6.20;;
60582;SDS011;46415;47.536;19.066;2022-08-19T08:10:58;8.98;;;6.05;;
60582;SDS011;46415;47.536;19.066;2022-08-19T08:14:02;10.82;;;6.00;;
60582;SDS011;46415;47.536;19.066;2022-08-19T08:17:07;7.20;;;5.90;;
60582;SDS011;46415;47.536;19.066;2022-08-19T08:20:13;7.20;;;5.70;;
60582;SDS011;46415;47.536;19.066;2022-08-19T08:23:16;7.03;;;5.87;;
60582;SDS011;46415;47.536;19.066;2022-08-19T08:26:25;6.87;;;5.97;;
60582;SDS011;46415;47.536;19.066;2022-08-19T08:29:30;6.55;;;5.62;;
60582;SDS011;46415;47.536;19.066;2022-08-19T08:32:36;8.05;;;5.97;;
60582;SDS011;46415;47.536;19.066;2022-08-19T08:35:42;6.72;;;6.00;;
60582;SDS011;46415;47.536;19.066;2022-08-19T08:38:45;7.45;;;5.62;;
60582;SDS011;46415;47.536;19.066;2022-08-19T08:44:59;5.95;;;5.37;;
60582;SDS011;46415;47.536;19.066;2022-08-19T08:48:16;6.05;;;5.45;;
60582;SDS011;46415;47.536;19.066;2022-08-19T08:51:27;7.93;;;5.40;;
60582;SDS011;46415;47.536;19.066;2022-08-19T08:54:41;8.05;;;5.50;;
60582;SDS011;46415;47.536;19.066;2022-08-19T08:58:06;10.48;;;5.37;;
60582;SDS011;46415;47.536;19.066;2022-08-19T09:01:16;6.32;;;5.25;;
60582;SDS011;46415;47.536;19.066;2022-08-19T09:04:19;7.03;;;5.60;;
60582;SDS011;46415;47.536;19.066;2022-08-19T09:10:52;7.25;;;5.80;;
60582;SDS011;46415;47.536;19.066;2022-08-19T09:17:02;7.15;;;5.78;;
60582;SDS011;46415;47.536;19.066;2022-08-19T09:20:08;6.78;;;5.78;;
60582;SDS011;46415;47.536;19.066;2022-08-19T09:23:20;7.60;;;5.40;;
60582;SDS011;46415;47.536;19.066;2022-08-19T09:26:28;8.70;;;5.32;;
60582;SDS011;46415;47.536;19.066;2022-08-19T09:29:51;5.75;;;5.07;;
60582;SDS011;46415;47.536;19.066;2022-08-19T09:32:56;9.55;;;5.05;;
60582;SDS011;46415;47.536;19.066;2022-08-19T09:36:03;7.00;;;5.62;;
60582;SDS011;46415;47.536;19.066;2022-08-19T09:39:11;7.50;;;5.15;;
60582;SDS011;46415;47.536;19.066;2022-08-19T09:42:17;9.95;;;5.30;;
60582;SDS011;46415;47.536;19.066;2022-08-19T09:45:32;8.95;;;5.37;;
60582;SDS011;46415;47.536;19.066;2022-08-19T09:48:35;7.53;;;5.37;;
60582;SDS011;46415;47.536;19.066;2022-08-19T09:51:39;6.47;;;5.30;;
60582;SDS011;46415;47.536;19.066;2022-08-19T09:54:42;14.35;;;5.45;;
60582;SDS011;46415;47.536;19.066;2022-08-19T09:57:45;6.40;;;5.18;;
60582;SDS011;46415;47.536;19.066;2022-08-19T10:00:48;8.90;;;5.60;;
60582;SDS011;46415;47.536;19.066;2022-08-19T10:03:54;7.00;;;5.20;;
60582;SDS011;46415;47.536;19.066;2022-08-19T10:06:58;10.25;;;5.90;;
60582;SDS011;46415;47.536;19.066;2022-08-19T10:10:02;6.57;;;5.18;;
60582;SDS011;46415;47.536;19.066;2022-08-19T10:13:08;6.43;;;5.18;;
60582;SDS011;46415;47.536;19.066;2022-08-19T10:16:13;5.60;;;5.07;;
60582;SDS011;46415;47.536;19.066;2022-08-19T10:19:19;6.62;;;5.35;;
60582;SDS011;46415;47.536;19.066;2022-08-19T10:22:27;5.25;;;4.72;;
60582;SDS011;46415;47.536;19.066;2022-08-19T10:25:29;6.85;;;4.78;;
60582;SDS011;46415;47.536;19.066;2022-08-19T10:28:36;5.45;;;4.95;;
60582;SDS011;46415;47.536;19.066;2022-08-19T10:35:04;6.40;;;4.70;;
60582;SDS011;46415;47.536;19.066;2022-08-19T10:38:10;9.52;;;5.25;;
60582;SDS011;46415;47.536;19.066;2022-08-19T10:41:14;6.10;;;5.05;;
60582;SDS011;46415;47.536;19.066;2022-08-19T10:44:21;8.85;;;5.20;;
60582;SDS011;46415;47.536;19.066;2022-08-19T10:47:25;5.75;;;4.75;;
60582;SDS011;46415;47.536;19.066;2022-08-19T10:50:33;6.20;;;4.97;;
60582;SDS011;46415;47.536;19.066;2022-08-19T10:53:54;8.25;;;4.90;;
60582;SDS011;46415;47.536;19.066;2022-08-19T10:56:57;7.15;;;4.90;;
60582;SDS011;46415;47.536;19.066;2022-08-19T11:00:00;5.85;;;5.07;;
60582;SDS011;46415;47.536;19.066;2022-08-19T11:03:03;9.02;;;4.70;;
60582;SDS011;46415;47.536;19.066;2022-08-19T11:06:07;5.12;;;4.72;;
60582;SDS011;46415;47.536;19.066;2022-08-19T11:09:10;5.53;;;5.03;;
60582;SDS011;46415;47.536;19.066;2022-08-19T11:12:14;5.32;;;4.70;;
60582;SDS011;46415;47.536;19.066;2022-08-19T11:15:17;11.70;;;4.80;;
60582;SDS011;46415;47.536;19.066;2022-08-19T11:18:20;5.53;;;5.00;;
60582;SDS011;46415;47.536;19.066;2022-08-19T11:21:23;9.05;;;5.00;;
60582;SDS011;46415;47.536;19.066;2022-08-19T11:24:34;6.30;;;5.80;;
60582;SDS011;46415;47.536;19.066;2022-08-19T11:27:38;7.78;;;5.07;;
60582;SDS011;46415;47.536;19.066;2022-08-19T11:30:44;5.80;;;4.80;;
60582;SDS011;46415;47.536;19.066;2022-08-19T11:33:47;5.12;;;4.40;;
60582;SDS011;46415;47.536;19.066;2022-08-19T11:36:54;8.52;;;5.35;;
60582;SDS011;46415;47.536;19.066;2022-08-19T11:40:01;5.85;;;5.35;;
60582;SDS011;46415;47.536;19.066;2022-08-19T11:43:04;9.63;;;6.10;;
60582;SDS011;46415;47.536;19.066;2022-08-19T11:46:08;6.35;;;5.82;;
60582;SDS011;46415;47.536;19.066;2022-08-19T11:49:13;9.48;;;5.75;;
60582;SDS011;46415;47.536;19.066;2022-08-19T11:52:17;6.50;;;5.12;;
60582;SDS011;46415;47.536;19.066;2022-08-19T11:55:20;6.68;;;5.55;;
60582;SDS011;46415;47.536;19.066;2022-08-19T11:58:22;22.35;;;6.28;;
60582;SDS011;46415;47.536;19.066;2022-08-19T12:01:26;7.53;;;5.50;;
60582;SDS011;46415;47.536;19.066;2022-08-19T12:04:29;5.70;;;5.20;;
60582;SDS011;46415;47.536;19.066;2022-08-19T12:07:32;8.35;;;5.18;;
60582;SDS011;46415;47.536;19.066;2022-08-19T12:10:36;5.28;;;4.82;;
60582;SDS011;46415;47.536;19.066;2022-08-19T12:13:39;5.70;;;5.10;;
60582;SDS011;46415;47.536;19.066;2022-08-19T12:16:43;9.40;;;6.22;;
60582;SDS011;46415;47.536;19.066;2022-08-19T12:19:53;8.38;;;6.05;;
60582;SDS011;46415;47.536;19.066;2022-08-19T12:22:57;7.00;;;6.30;;
60582;SDS011;46415;47.536;19.066;2022-08-19T12:25:59;6.75;;;6.15;;
60582;SDS011;46415;47.536;19.066;2022-08-19T12:29:02;8.38;;;5.50;;
60582;SDS011;46415;47.536;19.066;2022-08-19T12:32:06;6.15;;;5.50;;
60582;SDS011;46415;47.536;19.066;2022-08-19T12:35:11;8.73;;;5.18;;
60582;SDS011;46415;47.536;19.066;2022-08-19T12:38:14;7.45;;;5.43;;
60582;SDS011;46415;47.536;19.066;2022-08-19T12:41:17;10.60;;;7.53;;
60582;SDS011;46415;47.536;19.066;2022-08-19T12:44:21;12.50;;;8.18;;
60582;SDS011;46415;47.536;19.066;2022-08-19T12:47:33;8.63;;;7.47;;
60582;SDS011;46415;47.536;19.066;2022-08-19T12:50:40;8.20;;;7.40;;
60582;SDS011;46415;47.536;19.066;2022-08-19T12:53:44;10.88;;;7.28;;
60582;SDS011;46415;47.536;19.066;2022-08-19T12:56:47;11.80;;;7.95;;
60582;SDS011;46415;47.536;19.066;2022-08-19T12:59:53;8.73;;;7.80;;
60582;SDS011;46415;47.536;19.066;2022-08-19T13:02:56;11.77;;;8.57;;
60582;SDS011;46415;47.536;19.066;2022-08-19T13:05:59;12.13;;;8.55;;
60582;SDS011;46415;47.536;19.066;2022-08-19T13:09:02;10.55;;;8.77;;
60582;SDS011;46415;47.536;19.066;2022-08-19T13:12:06;9.98;;;8.98;;
60582;SDS011;46415;47.536;19.066;2022-08-19T13:15:10;15.00;;;9.27;;
60582;SDS011;46415;47.536;19.066;2022-08-19T13:18:13;12.18;;;9.73;;
60582;SDS011;46415;47.536;19.066;2022-08-19T13:21:16;11.15;;;9.60;;
60582;SDS011;46415;47.536;19.066;2022-08-19T13:24:24;13.18;;;10.00;;
60582;SDS011;46415;47.536;19.066;2022-08-19T13:27:35;14.32;;;9.77;;
60582;SDS011;46415;47.536;19.066;2022-08-19T13:30:38;14.38;;;10.65;;
60582;SDS011;46415;47.536;19.066;2022-08-19T13:34:00;10.35;;;9.25;;
60582;SDS011;46415;47.536;19.066;2022-08-19T13:37:03;12.23;;;9.82;;
60582;SDS011;46415;47.536;19.066;2022-08-19T13:40:07;10.80;;;9.63;;
60582;SDS011;46415;47.536;19.066;2022-08-19T13:43:17;14.75;;;10.13;;
60582;SDS011;46415;47.536;19.066;2022-08-19T13:46:24;14.32;;;8.82;;
60582;SDS011;46415;47.536;19.066;2022-08-19T13:49:28;11.70;;;8.43;;
60582;SDS011;46415;47.536;19.066;2022-08-19T13:52:33;9.23;;;5.72;;
60582;SDS011;46415;47.536;19.066;2022-08-19T13:55:39;7.97;;;4.80;;
60582;SDS011;46415;47.536;19.066;2022-08-19T13:58:43;7.85;;;4.65;;
60582;SDS011;46415;47.536;19.066;2022-08-19T14:01:46;8.75;;;4.75;;
60582;SDS011;46415;47.536;19.066;2022-08-19T14:04:49;10.02;;;4.97;;
60582;SDS011;46415;47.536;19.066;2022-08-19T14:07:51;8.15;;;5.00;;
60582;SDS011;46415;47.536;19.066;2022-08-19T14:10:55;10.40;;;4.50;;
60582;SDS011;46415;47.536;19.066;2022-08-19T14:13:57;9.88;;;4.37;;
60582;SDS011;46415;47.536;19.066;2022-08-19T14:17:00;16.58;;;4.53;;
60582;SDS011;46415;47.536;19.066;2022-08-19T14:20:04;14.27;;;4.78;;
60582;SDS011;46415;47.536;19.066;2022-08-19T14:23:12;15.98;;;4.62;;
60582;SDS011;46415;47.536;19.066;2022-08-19T14:26:17;9.75;;;4.05;;
60582;SDS011;46415;47.536;19.066;2022-08-19T14:29:21;10.65;;;4.25;;
60582;SDS011;46415;47.536;19.066;2022-08-19T14:32:26;10.70;;;4.07;;
60582;SDS011;46415;47.536;19.066;2022-08-19T14:35:30;10.48;;;4.07;;
60582;SDS011;46415;47.536;19.066;2022-08-19T14:38:37;13.20;;;4.15;;
60582;SDS011;46415;47.536;19.066;2022-08-19T14:41:41;15.57;;;4.93;;
60582;SDS011;46415;47.536;19.066;2022-08-19T14:44:47;10.50;;;3.80;;
60582;SDS011;46415;47.536;19.066;2022-08-19T14:47:50;11.23;;;4.18;;
60582;SDS011;46415;47.536;19.066;2022-08-19T14:50:53;12.40;;;4.22;;
60582;SDS011;46415;47.536;19.066;2022-08-19T14:53:56;8.65;;;3.40;;
60582;SDS011;46415;47.536;19.066;2022-08-19T14:56:59;10.70;;;3.12;;
60582;SDS011;46415;47.536;19.066;2022-08-19T15:00:02;6.62;;;3.65;;
60582;SDS011;46415;47.536;19.066;2022-08-19T15:03:06;19.00;;;3.55;;
60582;SDS011;46415;47.536;19.066;2022-08-19T15:06:09;15.65;;;3.47;;
60582;SDS011;46415;47.536;19.066;2022-08-19T15:09:14;12.13;;;3.33;;
60582;SDS011;46415;47.536;19.066;2022-08-19T15:12:17;12.55;;;3.37;;
60582;SDS011;46415;47.536;19.066;2022-08-19T15:15:24;14.05;;;3.35;;
60582;SDS011;46415;47.536;19.066;2022-08-19T15:18:27;12.27;;;3.35;;
60582;SDS011;46415;47.536;19.066;2022-08-19T15:21:30;11.05;;;2.75;;
60582;SDS011;46415;47.536;19.066;2022-08-19T15:24:33;6.00;;;2.90;;
60582;SDS011;46415;47.536;19.066;2022-08-19T15:27:49;10.18;;;2.85;;
60582;SDS011;46415;47.536;19.066;2022-08-19T15:30:52;11.10;;;2.90;;
60582;SDS011;46415;47.536;19.066;2022-08-19T15:33:55;10.80;;;3.03;;
60582;SDS011;46415;47.536;19.066;2022-08-19T15:37:00;12.13;;;2.90;;
60582;SDS011;46415;47.536;19.066;2022-08-19T15:40:05;8.45;;;3.83;;
60582;SDS011;46415;47.536;19.066;2022-08-19T15:43:10;12.50;;;3.37;;
60582;SDS011;46415;47.536;19.066;2022-08-19T15:46:19;8.25;;;2.80;;
60582;SDS011;46415;47.536;19.066;2022-08-19T15:49:25;9.00;;;3.10;;
60582;SDS011;46415;47.536;19.066;2022-08-19T15:52:27;11.90;;;3.42;;
60582;SDS011;46415;47.536;19.066;2022-08-19T15:55:31;11.40;;;3.15;;
60582;SDS011;46415;47.536;19.066;2022-08-19T15:58:36;9.20;;;2.85;;
60582;SDS011;46415;47.536;19.066;2022-08-19T16:01:58;13.77;;;3.47;;
60582;SDS011;46415;47.536;19.066;2022-08-19T16:05:22;13.13;;;3.60;;
60582;SDS011;46415;47.536;19.066;2022-08-19T16:08:45;9.35;;;2.75;;
60582;SDS011;46415;47.536;19.066;2022-08-19T16:11:51;8.65;;;2.50;;
60582;SDS011;46415;47.536;19.066;2022-08-19T16:14:58;12.05;;;2.97;;
60582;SDS011;46415;47.536;19.066;2022-08-19T16:18:01;10.90;;;2.58;;
60582;SDS011;46415;47.536;19.066;2022-08-19T16:21:05;9.65;;;2.60;;
60582;SDS011;46415;47.536;19.066;2022-08-19T16:24:10;6.62;;;2.55;;
60582;SDS011;46415;47.536;19.066;2022-08-19T16:27:14;7.30;;;2.60;;
60582;SDS011;46415;47.536;19.066;2022-08-19T16:30:18;9.13;;;3.10;;
60582;SDS011;46415;47.536;19.066;2022-08-19T16:33:20;10.88;;;2.42;;
60582;SDS011;46415;47.536;19.066;2022-08-19T16:36:24;9.05;;;2.83;;
60582;SDS011;46415;47.536;19.066;2022-08-19T16:39:29;8.30;;;2.40;;
60582;SDS011;46415;47.536;19.066;2022-08-19T16:42:33;12.40;;;2.85;;
60582;SDS011;46415;47.536;19.066;2022-08-19T16:45:36;10.60;;;2.80;;
60582;SDS011;46415;47.536;19.066;2022-08-19T16:48:39;9.35;;;2.50;;
60582;SDS011;46415;47.536;19.066;2022-08-19T16:51:44;11.48;;;2.92;;
60582;SDS011;46415;47.536;19.066;2022-08-19T16:54:47;10.48;;;2.65;;
60582;SDS011;46415;47.536;19.066;2022-08-19T16:57:50;12.10;;;2.87;;
60582;SDS011;46415;47.536;19.066;2022-08-19T17:00:54;7.93;;;2.80;;
60582;SDS011;46415;47.536;19.066;2022-08-19T17:04:03;9.32;;;2.90;;
60582;SDS011;46415;47.536;19.066;2022-08-19T17:07:05;11.07;;;3.03;;
60582;SDS011;46415;47.536;19.066;2022-08-19T17:10:10;9.52;;;3.67;;
60582;SDS011;46415;47.536;19.066;2022-08-19T17:13:13;9.00;;;3.35;;
60582;SDS011;46415;47.536;19.066;2022-08-19T17:16:17;8.52;;;2.80;;
60582;SDS011;46415;47.536;19.066;2022-08-19T17:19:23;10.30;;;3.20;;
60582;SDS011;46415;47.536;19.066;2022-08-19T17:22:26;9.68;;;3.40;;
60582;SDS011;46415;47.536;19.066;2022-08-19T17:25:29;11.38;;;3.80;;
60582;SDS011;46415;47.536;19.066;2022-08-19T17:28:33;8.80;;;3.25;;
60582;SDS011;46415;47.536;19.066;2022-08-19T17:31:36;10.95;;;4.00;;
60582;SDS011;46415;47.536;19.066;2022-08-19T17:34:39;15.52;;;4.12;;
60582;SDS011;46415;47.536;19.066;2022-08-19T17:37:42;14.23;;;4.10;;
60582;SDS011;46415;47.536;19.066;2022-08-19T17:40:45;12.35;;;3.80;;
60582;SDS011;46415;47.536;19.066;2022-08-19T17:43:49;11.48;;;3.25;;
60582;SDS011;46415;47.536;19.066;2022-08-19T17:46:52;7.47;;;3.05;;
60582;SDS011;46415;47.536;19.066;2022-08-19T17:49:55;12.45;;;3.37;;
60582;SDS011;46415;47.536;19.066;2022-08-19T17:52:58;13.27;;;3.28;;
60582;SDS011;46415;47.536;19.066;2022-08-19T17:56:01;8.10;;;3.17;;
60582;SDS011;46415;47.536;19.066;2022-08-19T17:59:05;11.27;;;3.37;;
60582;SDS011;46415;47.536;19.066;2022-08-19T18:02:14;12.20;;;3.30;;
60582;SDS011;46415;47.536;19.066;2022-08-19T18:05:22;8.80;;;3.50;;
60582;SDS011;46415;47.536;19.066;2022-08-19T18:08:29;14.02;;;3.60;;
60582;SDS011;46415;47.536;19.066;2022-08-19T18:11:32;12.82;;;3.25;;
60582;SDS011;46415;47.536;19.066;2022-08-19T18:14:36;10.07;;;3.40;;
60582;SDS011;46415;47.536;19.066;2022-08-19T18:17:40;8.43;;;3.62;;
60582;SDS011;46415;47.536;19.066;2022-08-19T18:20:43;10.05;;;3.45;;
60582;SDS011;46415;47.536;19.066;2022-08-19T18:23:46;8.73;;;3.20;;
60582;SDS011;46415;47.536;19.066;2022-08-19T18:26:49;9.70;;;3.20;;